Time;durP1;ratioP1;P1;durP2;ratioP2;P2;SDS_P1;SDS_P2;PMS_P1;PMS_P2;Temp;Humidity;BMP_temperature;BMP_pressure;BME280_temperature;BME280_humidity;BME280_pressure;Samples;Min_cycle;Max_cycle;Signal;HPM_P1;HPM_P2
2023/04/24 00:01:16;;;;;;;8.13;4.80;;;13.80;77.70;;;;;;6213185;22;20024;-77
2023/04/24 00:03:44;;;;;;;6.18;4.75;;;13.70;77.90;;;;;;6212391;22;20066;-77
2023/04/24 00:06:11;;;;;;;14.07;5.80;;;13.70;77.60;;;;;;6236805;22;20381;-78
2023/04/24 00:08:38;;;;;;;9.07;5.47;;;13.70;78.50;;;;;;6210816;22;20019;-77
2023/04/24 00:11:05;;;;;;;5.88;4.57;;;13.70;78.60;;;;;;6244348;22;20020;-78
2023/04/24 00:13:32;;;;;;;6.47;4.50;;;13.60;78.20;;;;;;6237864;22;20451;-77
2023/04/24 00:15:59;;;;;;;8.48;5.07;;;13.60;78.30;;;;;;6237975;22;20533;-77
2023/04/24 00:18:26;;;;;;;7.43;5.00;;;13.60;78.80;;;;;;6235381;22;20031;-78
2023/04/24 00:20:53;;;;;;;9.55;5.35;;;13.50;78.90;;;;;;6240640;22;20026;-77
2023/04/24 00:23:20;;;;;;;10.70;5.22;;;13.60;79.30;;;;;;6215910;22;20404;-77
2023/04/24 00:25:47;;;;;;;9.70;5.07;;;13.60;79.10;;;;;;6264393;22;20024;-77
2023/04/24 00:28:15;;;;;;;8.10;5.00;;;13.60;80.10;;;;;;6242238;22;20028;-78
2023/04/24 00:30:42;;;;;;;8.80;5.82;;;13.60;79.90;;;;;;6213655;22;20023;-77
2023/04/24 00:33:09;;;;;;;10.02;6.15;;;13.60;79.50;;;;;;6270512;22;20023;-77
2023/04/24 00:35:36;;;;;;;10.73;6.15;;;13.50;79.90;;;;;;6237480;22;20030;-78
2023/04/24 00:38:03;;;;;;;9.55;6.28;;;13.50;80.50;;;;;;6242126;22;20094;-77
2023/04/24 00:40:30;;;;;;;9.13;5.72;;;13.60;81.10;;;;;;6215649;22;20034;-78
2023/04/24 00:42:58;;;;;;;10.13;5.70;;;13.60;80.50;;;;;;6212253;22;20515;-77
2023/04/24 00:45:25;;;;;;;9.63;5.80;;;13.60;80.60;;;;;;6213536;22;20023;-77
2023/04/24 00:47:53;;;;;;;8.23;5.35;;;13.60;80.10;;;;;;6237943;22;20024;-79
2023/04/24 00:50:21;;;;;;;10.73;6.07;;;13.60;80.40;;;;;;6240833;22;20039;-77
2023/04/24 00:52:50;;;;;;;10.80;5.93;;;13.60;80.70;;;;;;6237937;22;20106;-78
2023/04/24 00:55:17;;;;;;;7.57;5.20;;;13.60;81.10;;;;;;6236958;22;20019;-77
2023/04/24 00:57:46;;;;;;;7.95;5.40;;;13.60;80.90;;;;;;6212451;22;20030;-77
2023/04/24 01:00:15;;;;;;;9.68;5.78;;;13.60;82.60;;;;;;6210416;22;20027;-77
2023/04/24 01:02:44;;;;;;;11.63;5.68;;;13.60;82.50;;;;;;6235158;22;20030;-77
2023/04/24 01:05:14;;;;;;;9.30;5.80;;;13.60;83.50;;;;;;6262348;22;20023;-78
2023/04/24 01:07:47;;;;;;;8.18;5.45;;;13.60;84.30;;;;;;6211251;22;20027;-77
2023/04/24 01:10:14;;;;;;;9.35;5.35;;;13.50;83.90;;;;;;6234571;22;20022;-77
2023/04/24 01:12:41;;;;;;;12.60;5.68;;;13.50;84.20;;;;;;6237593;22;20023;-77
2023/04/24 01:15:11;;;;;;;8.23;5.65;;;13.50;84.50;;;;;;6211958;22;20019;-77
2023/04/24 01:17:39;;;;;;;10.48;5.75;;;13.50;83.70;;;;;;6238281;22;20352;-78
2023/04/24 01:20:06;;;;;;;12.77;5.47;;;13.40;84.60;;;;;;6210107;22;20054;-78
2023/04/24 01:22:34;;;;;;;10.13;6.10;;;13.50;84.60;;;;;;6236300;22;20114;-77
2023/04/24 01:25:02;;;;;;;8.15;5.90;;;13.50;84.60;;;;;;6214848;22;20035;-78
2023/04/24 01:27:29;;;;;;;8.82;5.35;;;13.50;84.80;;;;;;6212797;22;20027;-78
2023/04/24 01:29:56;;;;;;;9.80;4.95;;;13.50;84.10;;;;;;6215948;22;20104;-77
2023/04/24 01:32:24;;;;;;;7.10;4.82;;;13.60;84.30;;;;;;6209770;22;20105;-78
2023/04/24 01:34:52;;;;;;;10.43;5.70;;;13.60;85.10;;;;;;6210869;22;20110;-77
2023/04/24 01:37:19;;;;;;;9.30;5.90;;;13.50;85.70;;;;;;6212449;22;20030;-77
2023/04/24 01:39:46;;;;;;;9.73;6.20;;;13.50;87.40;;;;;;6264330;22;20022;-77
2023/04/24 01:42:14;;;;;;;9.63;5.95;;;13.50;88.70;;;;;;6236265;22;20020;-77
2023/04/24 01:44:42;;;;;;;8.88;6.07;;;13.50;88.80;;;;;;6212814;22;20023;-78
2023/04/24 01:47:09;;;;;;;11.80;6.75;;;13.50;89.70;;;;;;6211417;22;20031;-77
2023/04/24 01:49:38;;;;;;;12.07;6.45;;;13.40;90.40;;;;;;6233585;22;20043;-78
2023/04/24 01:52:06;;;;;;;8.27;6.00;;;13.40;90.70;;;;;;6209155;22;20034;-78
2023/04/24 01:54:33;;;;;;;7.60;5.93;;;13.40;91.00;;;;;;6213025;22;20019;-78
2023/04/24 01:57:02;;;;;;;8.02;5.50;;;13.30;91.60;;;;;;6209419;22;20051;-78
2023/04/24 01:59:32;;;;;;;8.82;6.15;;;13.30;92.60;;;;;;6190231;22;20019;-78
2023/04/24 02:01:59;;;;;;;10.60;5.70;;;13.30;93.20;;;;;;6235285;22;20106;-78
2023/04/24 02:04:26;;;;;;;9.35;6.00;;;13.30;93.90;;;;;;6234225;22;20192;-80
2023/04/24 02:06:54;;;;;;;9.18;5.15;;;13.30;95.50;;;;;;6233436;22;20130;-79
2023/04/24 02:09:21;;;;;;;10.27;5.80;;;13.30;96.80;;;;;;6208420;22;20032;-79
2023/04/24 02:11:48;;;;;;;14.65;6.47;;;13.20;97.70;;;;;;6211435;22;20034;-78
2023/04/24 02:14:15;;;;;;;8.65;5.40;;;13.30;98.70;;;;;;6209731;22;20051;-79
2023/04/24 02:16:43;;;;;;;10.55;5.43;;;13.20;99.00;;;;;;6207910;22;20361;-77
2023/04/24 02:19:11;;;;;;;10.48;5.90;;;13.10;99.90;;;;;;6233019;22;20026;-78
2023/04/24 02:21:38;;;;;;;12.32;6.75;;;13.10;99.90;;;;;;6212237;22;20028;-78
2023/04/24 02:24:08;;;;;;;8.45;6.20;;;13.00;99.90;;;;;;6210897;22;20348;-78
2023/04/24 02:26:35;;;;;;;10.43;6.80;;;13.10;99.90;;;;;;6207123;22;20027;-78
2023/04/24 02:29:02;;;;;;;13.10;6.72;;;13.10;99.90;;;;;;6207324;22;20038;-78
2023/04/24 02:31:29;;;;;;;14.88;7.68;;;13.20;99.90;;;;;;6206515;22;20081;-78
2023/04/24 02:33:56;;;;;;;11.57;7.53;;;13.20;99.90;;;;;;6208365;22;20057;-78
2023/04/24 02:36:23;;;;;;;9.15;6.65;;;13.20;99.90;;;;;;6234922;22;20030;-78
2023/04/24 02:38:50;;;;;;;13.00;7.10;;;13.20;99.90;;;;;;6233171;22;20046;-78
2023/04/24 02:41:17;;;;;;;13.82;7.60;;;13.30;99.90;;;;;;6206086;22;20020;-78
2023/04/24 02:43:44;;;;;;;9.93;7.38;;;13.20;99.90;;;;;;6206327;22;20069;-78
2023/04/24 02:46:12;;;;;;;12.77;8.13;;;13.30;99.90;;;;;;6206245;22;20055;-78
2023/04/24 02:48:39;;;;;;;12.60;7.80;;;13.20;99.90;;;;;;6205421;22;20085;-78
2023/04/24 02:51:06;;;;;;;11.95;8.07;;;13.20;99.90;;;;;;6212506;22;20134;-78
2023/04/24 02:53:33;;;;;;;12.52;7.70;;;13.20;99.90;;;;;;6208336;22;20019;-78
2023/04/24 02:56:01;;;;;;;13.85;7.60;;;13.20;99.90;;;;;;6210341;22;20024;-78
2023/04/24 02:58:28;;;;;;;14.90;7.85;;;13.20;99.90;;;;;;6207746;22;20560;-78
2023/04/24 03:00:56;;;;;;;10.65;7.45;;;13.50;99.90;;;;;;6210810;22;20027;-80
2023/04/24 03:03:23;;;;;;;12.90;7.75;;;13.10;99.90;;;;;;6206238;22;20845;-78
2023/04/24 03:05:51;;;;;;;11.00;7.30;;;13.10;99.90;;;;;;6207634;22;20338;-79
2023/04/24 03:08:18;;;;;;;12.13;7.45;;;13.10;99.90;;;;;;6207149;22;20404;-78
2023/04/24 03:10:45;;;;;;;11.07;7.32;;;13.10;99.90;;;;;;6208953;22;20110;-78
2023/04/24 03:13:15;;;;;;;11.63;7.07;;;13.10;99.90;;;;;;6210564;22;20362;-78
2023/04/24 03:15:43;;;;;;;18.38;7.75;;;13.20;99.90;;;;;;6210742;22;20412;-78
2023/04/24 03:18:10;;;;;;;13.40;7.47;;;13.20;99.90;;;;;;6206463;22;20020;-78
2023/04/24 03:20:37;;;;;;;10.50;7.10;;;13.20;99.90;;;;;;6206717;22;20499;-78
2023/04/24 03:23:04;;;;;;;11.82;7.53;;;13.20;99.90;;;;;;6238230;22;20015;-78
2023/04/24 03:25:32;;;;;;;11.77;7.43;;;13.20;99.90;;;;;;6231941;22;20131;-78
2023/04/24 03:27:59;;;;;;;12.20;7.50;;;13.10;99.90;;;;;;6206846;22;20114;-78
2023/04/24 03:30:38;;;;;;;14.38;7.47;;;13.10;99.90;;;;;;6208443;22;20034;-78
2023/04/24 03:33:06;;;;;;;12.02;7.80;;;13.10;99.90;;;;;;6207014;22;20027;-78
2023/04/24 03:35:37;;;;;;;12.93;7.93;;;13.10;99.90;;;;;;6207301;22;20024;-78
2023/04/24 03:38:08;;;;;;;10.43;6.35;;;13.00;99.90;;;;;;6207665;22;20044;-78
2023/04/24 03:40:53;;;;;;;12.60;7.00;;;13.00;99.90;;;;;;6211058;22;20590;-78
2023/04/24 03:43:40;;;;;;;9.25;6.57;;;13.00;99.90;;;;;;6175574;22;20043;-78
2023/04/24 03:46:09;;;;;;;8.57;5.65;;;13.00;99.90;;;;;;6232543;22;20124;-78
2023/04/24 03:48:41;;;;;;;9.40;6.25;;;13.00;99.90;;;;;;6232706;22;20134;-78
2023/04/24 03:51:09;;;;;;;9.48;6.63;;;12.90;99.90;;;;;;6206880;22;20030;-78
2023/04/24 03:53:38;;;;;;;11.25;6.38;;;13.00;99.90;;;;;;6206273;22;20030;-78
2023/04/24 03:56:06;;;;;;;11.82;5.38;;;13.00;99.90;;;;;;6206995;22;20042;-78
2023/04/24 03:58:34;;;;;;;9.50;6.45;;;13.00;99.90;;;;;;6209203;22;20019;-78
2023/04/24 04:01:01;;;;;;;8.60;6.28;;;12.90;99.90;;;;;;6208749;22;20029;-78
2023/04/24 04:03:43;;;;;;;8.25;5.70;;;12.90;99.90;;;;;;6234731;22;20043;-80
2023/04/24 04:06:13;;;;;;;11.18;5.75;;;12.80;99.90;;;;;;6214803;22;20023;-78
2023/04/24 04:08:41;;;;;;;6.95;4.55;;;12.80;99.90;;;;;;6236637;22;20030;-78
2023/04/24 04:11:08;;;;;;;7.13;5.38;;;12.80;99.90;;;;;;6214073;22;20537;-78
2023/04/24 04:13:36;;;;;;;8.43;6.03;;;12.90;99.90;;;;;;6237893;22;20024;-77
2023/04/24 04:16:03;;;;;;;8.82;5.38;;;12.90;99.90;;;;;;6191674;22;20019;-78
2023/04/24 04:18:30;;;;;;;11.05;5.72;;;12.90;99.90;;;;;;6215694;22;20456;-78
2023/04/24 04:20:58;;;;;;;8.27;5.60;;;12.90;99.90;;;;;;6262234;22;20024;-78
2023/04/24 04:23:25;;;;;;;10.38;5.38;;;12.90;99.90;;;;;;6208730;22;20025;-78
2023/04/24 04:26:14;;;;;;;9.50;5.82;;;12.90;99.90;;;;;;6213326;22;20027;-78
2023/04/24 04:28:58;;;;;;;12.07;5.93;;;12.90;99.90;;;;;;6211402;22;20031;-78
2023/04/24 04:31:25;;;;;;;10.68;5.95;;;12.90;99.90;;;;;;6209917;22;20104;-78
2023/04/24 04:33:53;;;;;;;11.40;6.03;;;12.90;99.90;;;;;;6220570;22;20050;-78
2023/04/24 04:36:21;;;;;;;15.15;7.95;;;13.00;99.90;;;;;;6209479;22;20019;-78
2023/04/24 04:38:54;;;;;;;10.43;5.95;;;13.00;99.90;;;;;;6209692;22;20020;-78
2023/04/24 04:41:46;;;;;;;8.88;6.57;;;13.10;99.90;;;;;;6236845;22;20024;-79
2023/04/24 04:44:13;;;;;;;9.48;6.47;;;13.10;99.90;;;;;;6210747;22;20066;-78
2023/04/24 04:46:42;;;;;;;7.85;5.53;;;13.10;99.90;;;;;;6209100;22;20034;-78
2023/04/24 04:49:30;;;;;;;11.13;5.97;;;13.10;99.90;;;;;;6212795;22;20092;-79
2023/04/24 04:51:57;;;;;;;11.45;5.85;;;13.10;99.90;;;;;;6207098;22;20042;-78
2023/04/24 04:54:26;;;;;;;20.23;7.30;;;13.00;99.90;;;;;;6207471;22;20023;-79
2023/04/24 04:56:54;;;;;;;10.85;5.75;;;12.90;99.90;;;;;;6207946;22;20030;-79
2023/04/24 04:59:21;;;;;;;10.18;6.10;;;12.90;99.90;;;;;;6208831;22;20115;-78
2023/04/24 05:01:53;;;;;;;10.90;5.97;;;12.90;99.90;;;;;;6209251;22;20455;-79
2023/04/24 05:04:21;;;;;;;11.52;5.85;;;12.90;99.90;;;;;;6206816;22;20029;-78
2023/04/24 05:06:50;;;;;;;8.25;6.15;;;12.80;99.90;;;;;;6218821;22;20023;-79
2023/04/24 05:09:18;;;;;;;13.27;6.95;;;12.80;99.90;;;;;;6213790;22;20027;-79
2023/04/24 05:11:53;;;;;;;10.60;7.00;;;12.90;99.90;;;;;;6232600;22;20023;-79
2023/04/24 05:14:22;;;;;;;16.25;8.88;;;12.90;99.90;;;;;;6207218;22;20138;-79
2023/04/24 05:16:49;;;;;;;9.88;6.40;;;12.90;99.90;;;;;;6206235;22;20398;-79
2023/04/24 05:19:20;;;;;;;13.15;7.10;;;12.90;99.90;;;;;;6207275;22;20051;-79
2023/04/24 05:21:47;;;;;;;10.50;6.82;;;12.90;99.90;;;;;;6232492;22;20101;-78
2023/04/24 05:24:14;;;;;;;9.85;6.40;;;12.80;99.90;;;;;;6211468;22;20328;-79
2023/04/24 05:27:02;;;;;;;8.68;5.90;;;12.90;99.90;;;;;;6237898;22;20039;-79
2023/04/24 05:29:34;;;;;;;10.57;6.28;;;13.00;99.90;;;;;;6235186;22;20024;-78
2023/04/24 05:32:03;;;;;;;9.10;5.65;;;13.00;99.90;;;;;;6207631;22;20023;-79
2023/04/24 05:34:31;;;;;;;11.30;6.55;;;13.10;99.90;;;;;;6207393;22;20029;-78
2023/04/24 05:36:58;;;;;;;10.73;6.80;;;13.10;99.90;;;;;;6205925;22;20023;-78
2023/04/24 05:39:25;;;;;;;10.07;6.43;;;13.10;99.90;;;;;;6207021;22;20024;-79
2023/04/24 05:41:55;;;;;;;9.70;5.72;;;13.30;99.90;;;;;;6207718;22;20077;-79
2023/04/24 05:44:22;;;;;;;10.45;6.40;;;13.30;99.90;;;;;;6231519;22;20094;-77
2023/04/24 05:46:49;;;;;;;12.13;6.40;;;13.40;99.90;;;;;;6205338;22;20596;-80
2023/04/24 05:49:17;;;;;;;8.93;6.32;;;13.40;99.90;;;;;;6240832;22;20028;-78
2023/04/24 05:51:45;;;;;;;12.85;6.22;;;13.30;99.90;;;;;;6221803;22;20024;-78
2023/04/24 05:54:12;;;;;;;8.73;5.45;;;13.40;99.90;;;;;;6245617;22;20027;-78
2023/04/24 05:56:40;;;;;;;9.55;6.40;;;13.30;99.90;;;;;;6207237;22;20195;-78
2023/04/24 05:59:11;;;;;;;8.88;6.30;;;13.50;99.90;;;;;;6208592;22;20054;-78
2023/04/24 06:01:39;;;;;;;9.63;7.18;;;13.50;99.90;;;;;;6203872;22;20020;-78
2023/04/24 06:04:15;;;;;;;10.07;6.05;;;13.50;99.90;;;;;;6209370;22;20135;-78
2023/04/24 06:06:43;;;;;;;9.55;6.07;;;13.50;99.90;;;;;;6210331;22;20516;-79
2023/04/24 06:09:10;;;;;;;12.55;7.40;;;13.50;99.90;;;;;;6207820;22;20423;-79
2023/04/24 06:11:37;;;;;;;13.07;7.53;;;13.40;99.90;;;;;;6209833;22;20028;-79
2023/04/24 06:14:05;;;;;;;11.82;6.93;;;13.50;99.90;;;;;;6207732;22;20023;-79
2023/04/24 06:16:41;;;;;;;10.27;7.13;;;13.60;99.90;;;;;;6245455;22;20131;-78
2023/04/24 06:19:18;;;;;;;9.15;7.00;;;13.70;99.90;;;;;;6205333;22;20063;-79
2023/04/24 06:21:46;;;;;;;11.57;6.55;;;13.60;99.90;;;;;;6208013;22;20019;-78
2023/04/24 06:24:15;;;;;;;12.75;7.45;;;13.60;99.90;;;;;;6206944;22;20439;-80
2023/04/24 06:26:42;;;;;;;10.38;6.28;;;13.60;99.90;;;;;;6231970;22;20478;-79
2023/04/24 06:29:10;;;;;;;10.32;6.32;;;13.60;99.90;;;;;;6207316;22;20039;-79
2023/04/24 06:31:37;;;;;;;9.23;6.47;;;13.60;99.90;;;;;;6209198;22;20058;-79
2023/04/24 06:34:04;;;;;;;9.43;6.15;;;13.50;99.90;;;;;;6234239;22;20024;-78
2023/04/24 06:36:34;;;;;;;11.23;7.07;;;13.40;99.90;;;;;;6182759;22;20024;-79
2023/04/24 06:39:01;;;;;;;11.10;6.57;;;13.40;99.90;;;;;;6207206;22;20443;-79
2023/04/24 06:41:29;;;;;;;9.35;6.00;;;13.30;99.90;;;;;;6206772;22;20110;-79
2023/04/24 06:43:56;;;;;;;10.45;7.03;;;13.40;99.90;;;;;;6206797;22;20031;-79
2023/04/24 06:46:25;;;;;;;10.32;7.03;;;13.50;99.90;;;;;;6208593;22;20114;-79
2023/04/24 06:48:56;;;;;;;9.45;6.47;;;13.50;99.90;;;;;;6233781;22;20446;-79
2023/04/24 06:51:24;;;;;;;10.73;7.43;;;13.60;99.90;;;;;;6206531;22;20442;-80
2023/04/24 06:53:53;;;;;;;14.55;7.50;;;13.50;99.90;;;;;;6206951;22;20027;-79
2023/04/24 06:56:20;;;;;;;11.20;7.90;;;13.50;99.90;;;;;;6232402;22;20019;-79
2023/04/24 06:58:47;;;;;;;12.20;7.38;;;13.60;99.90;;;;;;6232787;22;20019;-78
2023/04/24 07:01:15;;;;;;;10.18;6.85;;;13.70;99.90;;;;;;6207096;22;20066;-78
2023/04/24 07:03:42;;;;;;;9.85;7.05;;;13.80;99.90;;;;;;6205732;22;20023;-78
2023/04/24 07:06:11;;;;;;;10.63;7.60;;;13.70;99.90;;;;;;6232025;22;20016;-79
2023/04/24 07:08:38;;;;;;;12.35;7.25;;;13.70;99.90;;;;;;6207213;22;20023;-79
2023/04/24 07:11:05;;;;;;;12.65;7.40;;;13.70;99.90;;;;;;6205706;22;20113;-79
2023/04/24 07:13:35;;;;;;;13.30;8.05;;;13.80;99.90;;;;;;6208057;22;20027;-78
2023/04/24 07:16:02;;;;;;;15.40;9.13;;;13.80;99.90;;;;;;6232737;22;20741;-78
2023/04/24 07:18:29;;;;;;;15.18;8.68;;;13.90;99.90;;;;;;6207289;22;20015;-78
2023/04/24 07:20:57;;;;;;;17.30;8.80;;;13.90;99.90;;;;;;6232906;22;20396;-78
2023/04/24 07:23:24;;;;;;;15.30;8.77;;;14.00;99.90;;;;;;6232677;22;20015;-79
2023/04/24 07:25:51;;;;;;;13.52;8.70;;;14.10;99.90;;;;;;6232543;22;20368;-78
2023/04/24 07:28:19;;;;;;;15.85;8.90;;;14.10;99.90;;;;;;6207187;22;20020;-78
2023/04/24 07:30:46;;;;;;;12.52;8.13;;;14.20;99.90;;;;;;6230075;22;20015;-79
2023/04/24 07:33:13;;;;;;;14.80;8.52;;;14.20;99.90;;;;;;6232085;22;20019;-78
2023/04/24 07:35:40;;;;;;;14.98;8.60;;;14.20;99.90;;;;;;6231849;22;20431;-79
2023/04/24 07:38:07;;;;;;;13.02;8.77;;;14.20;99.90;;;;;;6230681;22;20015;-79
2023/04/24 07:40:34;;;;;;;13.30;7.85;;;14.20;99.90;;;;;;6206556;22;20039;-80
2023/04/24 07:43:02;;;;;;;11.05;7.78;;;14.30;99.90;;;;;;6231994;22;20344;-79
2023/04/24 07:45:29;;;;;;;12.10;7.80;;;14.30;99.90;;;;;;6231841;22;20027;-79
2023/04/24 07:47:56;;;;;;;12.60;6.78;;;14.40;99.90;;;;;;6207111;22;20020;-79
2023/04/24 07:50:23;;;;;;;11.52;7.45;;;14.60;99.90;;;;;;6205865;22;20844;-80
2023/04/24 07:52:51;;;;;;;12.82;7.45;;;14.60;99.90;;;;;;6232682;22;20019;-79
2023/04/24 07:55:18;;;;;;;13.32;8.40;;;14.80;99.90;;;;;;6207240;22;20181;-79
2023/04/24 07:57:49;;;;;;;12.32;7.60;;;14.90;99.90;;;;;;6209904;22;20020;-78
2023/04/24 08:00:16;;;;;;;12.13;7.90;;;15.00;99.90;;;;;;6206427;22;20043;-78
2023/04/24 08:02:43;;;;;;;12.65;7.45;;;15.10;99.90;;;;;;6262779;22;20378;-78
2023/04/24 08:05:11;;;;;;;10.50;7.32;;;15.20;99.90;;;;;;6206909;22;20015;-77
2023/04/24 08:07:38;;;;;;;10.73;6.97;;;15.20;99.90;;;;;;6208092;22;20019;-77
2023/04/24 08:10:06;;;;;;;13.82;7.70;;;15.20;99.90;;;;;;6259533;22;20015;-77
2023/04/24 08:12:33;;;;;;;12.77;8.32;;;15.40;99.90;;;;;;6206588;22;20083;-79
2023/04/24 08:15:00;;;;;;;10.55;7.47;;;15.60;99.90;;;;;;6209342;22;20020;-79
2023/04/24 08:17:27;;;;;;;12.50;7.60;;;15.50;99.90;;;;;;6227322;22;20415;-79
2023/04/24 08:20:01;;;;;;;10.77;7.65;;;15.60;99.90;;;;;;6233374;22;20030;-78
2023/04/24 08:22:28;;;;;;;11.25;7.97;;;15.80;99.90;;;;;;6209056;22;20439;-79
2023/04/24 08:24:56;;;;;;;10.82;7.57;;;16.00;99.90;;;;;;6207971;22;20395;-78
2023/04/24 08:27:24;;;;;;;9.60;7.03;;;16.10;99.90;;;;;;6206006;22;20061;-77
2023/04/24 08:29:52;;;;;;;9.00;6.78;;;16.10;99.90;;;;;;6208337;22;20507;-77
2023/04/24 08:32:19;;;;;;;11.75;6.70;;;16.00;99.90;;;;;;6211451;22;20042;-77
2023/04/24 08:34:47;;;;;;;9.50;6.15;;;15.90;99.90;;;;;;6207824;22;20401;-79
2023/04/24 08:37:15;;;;;;;9.80;6.38;;;15.70;99.90;;;;;;6210668;22;20054;-78
2023/04/24 08:39:43;;;;;;;11.05;6.18;;;15.60;99.90;;;;;;6210242;22;20028;-78
2023/04/24 08:42:12;;;;;;;8.70;5.75;;;15.60;99.90;;;;;;6262516;22;20016;-78
2023/04/24 08:44:40;;;;;;;8.95;5.50;;;15.70;99.90;;;;;;6214056;22;20038;-77
2023/04/24 08:47:08;;;;;;;8.00;4.97;;;15.60;99.90;;;;;;6235252;22;20020;-78
2023/04/24 08:49:36;;;;;;;9.77;6.55;;;15.80;99.90;;;;;;6211708;22;20028;-77
2023/04/24 08:52:05;;;;;;;10.05;5.50;;;15.80;99.90;;;;;;6261206;22;20346;-78
2023/04/24 08:54:35;;;;;;;11.07;5.90;;;15.90;99.90;;;;;;6210654;22;20023;-78
2023/04/24 08:57:03;;;;;;;10.57;6.40;;;16.10;99.90;;;;;;6210750;22;20019;-78
2023/04/24 08:59:31;;;;;;;8.68;5.70;;;16.30;99.90;;;;;;6210232;22;20081;-78
2023/04/24 09:01:59;;;;;;;8.25;5.47;;;16.40;99.90;;;;;;6234490;22;20047;-78
2023/04/24 09:04:28;;;;;;;8.82;5.55;;;16.50;99.90;;;;;;6239399;22;20054;-77
2023/04/24 09:06:57;;;;;;;8.68;5.90;;;16.50;99.90;;;;;;6233724;22;20054;-78
2023/04/24 09:09:25;;;;;;;11.07;5.93;;;16.50;99.70;;;;;;6235207;22;20027;-78
2023/04/24 09:11:56;;;;;;;9.07;5.85;;;16.50;99.20;;;;;;6205767;22;20027;-77
2023/04/24 09:14:23;;;;;;;10.30;6.53;;;16.50;99.20;;;;;;6234270;22;20367;-78
2023/04/24 09:16:51;;;;;;;11.63;6.90;;;16.80;99.60;;;;;;6262381;22;20019;-78
2023/04/24 09:19:18;;;;;;;9.43;5.88;;;17.00;99.30;;;;;;6211059;22;20034;-78
2023/04/24 09:21:46;;;;;;;8.73;6.22;;;17.20;98.70;;;;;;6236137;22;20023;-78
2023/04/24 09:24:22;;;;;;;8.70;5.47;;;17.60;98.00;;;;;;6237354;22;20019;-78
2023/04/24 09:26:59;;;;;;;9.75;6.38;;;17.90;95.50;;;;;;6239305;22;20426;-77
2023/04/24 09:29:26;;;;;;;7.82;5.45;;;18.10;96.10;;;;;;6215027;22;20497;-76
2023/04/24 09:31:53;;;;;;;10.60;5.72;;;17.90;93.70;;;;;;6211002;22;20032;-78
2023/04/24 09:34:25;;;;;;;9.07;5.55;;;17.90;93.50;;;;;;6236685;22;20023;-78
2023/04/24 09:36:53;;;;;;;9.82;5.40;;;17.90;93.50;;;;;;6210586;22;20024;-77
2023/04/24 09:39:20;;;;;;;9.85;4.63;;;17.60;92.90;;;;;;6234742;22;20022;-78
2023/04/24 09:41:59;;;;;;;9.73;5.28;;;17.60;93.40;;;;;;6211244;22;20124;-77
2023/04/24 09:44:27;;;;;;;7.20;4.93;;;17.80;91.90;;;;;;6210819;22;20110;-77
2023/04/24 09:46:57;;;;;;;9.27;4.78;;;18.20;92.50;;;;;;6236734;22;20455;-78
2023/04/24 09:49:30;;;;;;;8.52;4.50;;;18.40;92.20;;;;;;6216435;22;20019;-77
2023/04/24 09:52:08;;;;;;;7.60;5.10;;;18.70;90.70;;;;;;6239073;22;20109;-77
2023/04/24 09:54:39;;;;;;;7.53;4.80;;;18.30;90.80;;;;;;6213368;22;20019;-77
2023/04/24 09:57:09;;;;;;;5.10;4.13;;;18.20;90.70;;;;;;6190491;22;20039;-77
2023/04/24 09:59:44;;;;;;;5.95;3.97;;;18.10;91.30;;;;;;6214441;22;20101;-76
2023/04/24 10:02:19;;;;;;;4.05;3.50;;;18.00;90.90;;;;;;6212563;22;20083;-78
2023/04/24 10:04:58;;;;;;;6.03;3.28;;;18.00;89.60;;;;;;6211316;22;20070;-77
2023/04/24 10:07:27;;;;;;;6.55;4.28;;;18.00;89.90;;;;;;6215592;22;20622;-78
2023/04/24 10:09:54;;;;;;;8.23;3.92;;;18.10;89.60;;;;;;6207892;22;20093;-78
2023/04/24 10:12:22;;;;;;;6.43;4.35;;;18.20;89.70;;;;;;6207453;22;20024;-78
2023/04/24 10:14:50;;;;;;;5.80;4.30;;;18.30;90.00;;;;;;6236529;22;20028;-79
2023/04/24 10:17:17;;;;;;;5.93;3.85;;;18.40;90.10;;;;;;6214481;22;20491;-79
2023/04/24 10:19:46;;;;;;;7.05;4.90;;;18.50;88.70;;;;;;6233137;22;20020;-78
2023/04/24 10:22:16;;;;;;;6.95;4.32;;;18.80;89.70;;;;;;6211386;22;20028;-76
2023/04/24 10:24:45;;;;;;;7.82;4.40;;;18.90;89.90;;;;;;6241383;22;20023;-78
2023/04/24 10:27:15;;;;;;;8.18;5.15;;;18.80;89.50;;;;;;6240511;22;20033;-77
2023/04/24 10:29:44;;;;;;;9.30;5.30;;;18.80;89.20;;;;;;6238501;22;20023;-78
2023/04/24 10:32:11;;;;;;;10.15;5.20;;;18.60;90.30;;;;;;6236041;22;20451;-78
2023/04/24 10:34:39;;;;;;;8.50;5.40;;;18.60;91.50;;;;;;6212275;22;20024;-77
2023/04/24 10:37:06;;;;;;;10.00;5.35;;;18.80;90.70;;;;;;6208881;22;20462;-76
2023/04/24 10:39:35;;;;;;;8.65;4.30;;;18.90;90.00;;;;;;6234348;22;20451;-77
2023/04/24 10:42:13;;;;;;;7.22;4.13;;;19.00;86.90;;;;;;6235339;22;20495;-79
2023/04/24 10:44:40;;;;;;;6.10;3.50;;;19.00;86.30;;;;;;6210717;22;20023;-77
2023/04/24 10:47:13;;;;;;;7.32;4.10;;;19.00;86.50;;;;;;6234984;22;20030;-77
2023/04/24 10:49:41;;;;;;;6.60;4.47;;;18.80;84.70;;;;;;6232770;22;20023;-77
2023/04/24 10:52:09;;;;;;;6.35;3.53;;;18.80;86.20;;;;;;6233853;22;20020;-77
2023/04/24 10:54:45;;;;;;;6.03;3.83;;;18.80;85.70;;;;;;6262884;22;20365;-77
2023/04/24 10:57:22;;;;;;;5.47;3.90;;;18.70;85.80;;;;;;6234757;22;20030;-77
2023/04/24 10:59:51;;;;;;;6.80;3.97;;;18.60;86.00;;;;;;6209692;22;20027;-77
2023/04/24 11:02:35;;;;;;;5.25;3.50;;;18.30;85.20;;;;;;6237671;22;20512;-78
2023/04/24 11:05:06;;;;;;;6.55;3.90;;;18.40;84.60;;;;;;6210299;22;20027;-78
2023/04/24 11:08:12;;;;;;;5.70;4.30;;;18.30;86.10;;;;;;6210068;22;20471;-78
2023/04/24 11:11:00;;;;;;;9.38;4.60;;;18.20;87.30;;;;;;6240075;22;20079;-78
2023/04/24 11:13:53;;;;;;;9.52;5.15;;;18.30;89.50;;;;;;6260207;22;20049;-78
2023/04/24 11:16:24;;;;;;;;;;;18.30;89.10;;;;;;6243961;22;20048;-77
2023/04/24 11:18:59;;;;;;;6.20;4.18;;;18.40;88.30;;;;;;6211013;22;19919;-78
2023/04/24 11:21:44;;;;;;;7.93;3.95;;;18.60;88.20;;;;;;6241635;22;20020;-78
2023/04/24 11:24:47;;;;;;;7.40;4.35;;;18.80;87.40;;;;;;6213800;22;20023;-77
2023/04/24 11:27:21;;;;;;;7.03;3.70;;;19.00;86.40;;;;;;6192577;22;20024;-77
2023/04/24 11:29:55;;;;;;;7.22;4.60;;;19.30;86.40;;;;;;6210878;22;20533;-80
2023/04/24 11:32:29;;;;;;;7.25;4.70;;;19.20;85.50;;;;;;6214061;22;20363;-78
2023/04/24 11:34:57;;;;;;;7.00;4.30;;;19.00;85.20;;;;;;6232139;22;20027;-78
2023/04/24 11:37:28;;;;;;;6.18;4.07;;;18.90;85.20;;;;;;6237517;22;20028;-78
2023/04/24 11:39:57;;;;;;;8.15;5.40;;;18.70;86.40;;;;;;6210528;22;20074;-78
2023/04/24 11:42:25;;;;;;;7.35;5.00;;;18.50;87.10;;;;;;6239820;22;20473;-79
2023/04/24 11:44:55;;;;;;;9.48;6.05;;;18.40;88.70;;;;;;6211772;22;20384;-78
2023/04/24 11:47:33;;;;;;;9.00;5.18;;;18.30;88.10;;;;;;6235999;22;20050;-77
2023/04/24 11:50:02;;;;;;;10.60;5.93;;;18.10;89.00;;;;;;6216945;22;20423;-77
2023/04/24 11:52:30;;;;;;;6.68;4.60;;;18.00;89.00;;;;;;6235613;22;20039;-77
2023/04/24 11:54:57;;;;;;;9.10;4.80;;;17.90;89.00;;;;;;6233093;22;20123;-79
2023/04/24 11:57:33;;;;;;;8.13;4.55;;;17.80;89.60;;;;;;6234730;22;20024;-78
2023/04/24 12:00:02;;;;;;;7.97;4.05;;;17.70;90.10;;;;;;6225801;22;20054;-78
2023/04/24 12:02:37;;;;;;;8.88;4.60;;;17.70;90.30;;;;;;6235680;22;20027;-77
2023/04/24 12:05:06;;;;;;;10.27;5.00;;;17.60;90.70;;;;;;6208114;22;20125;-76
2023/04/24 12:07:44;;;;;;;8.80;5.00;;;17.50;91.40;;;;;;6208099;22;20023;-76
2023/04/24 12:10:11;;;;;;;8.73;4.75;;;17.40;92.70;;;;;;6237158;22;20048;-77
2023/04/24 12:12:38;;;;;;;11.02;5.45;;;17.40;92.80;;;;;;6235700;22;20517;-77
2023/04/24 12:15:09;;;;;;;7.70;4.38;;;17.50;93.30;;;;;;6232204;22;20027;-78
2023/04/24 12:17:41;;;;;;;7.93;4.68;;;17.70;92.90;;;;;;6260886;22;20026;-79
2023/04/24 12:20:09;;;;;;;8.75;4.53;;;17.80;93.20;;;;;;6209455;22;20139;-77
2023/04/24 12:22:56;;;;;;;4.88;3.55;;;17.90;92.80;;;;;;6210466;22;20020;-78
2023/04/24 12:25:32;;;;;;;4.25;2.35;;;17.80;93.10;;;;;;6236938;22;20574;-77
2023/04/24 12:28:05;;;;;;;5.13;3.00;;;17.60;93.30;;;;;;6214904;22;20066;-77
2023/04/24 12:30:48;;;;;;;6.25;3.10;;;17.40;94.10;;;;;;6238483;22;20030;-77
2023/04/24 12:33:20;;;;;;;6.88;2.78;;;17.30;95.80;;;;;;6263328;22;20135;-77
2023/04/24 12:35:51;;;;;;;4.22;2.65;;;17.20;97.60;;;;;;6212045;22;20020;-77
2023/04/24 12:38:23;;;;;;;7.13;2.90;;;17.20;99.90;;;;;;6214913;22;20024;-77
2023/04/24 12:41:05;;;;;;;5.40;2.20;;;17.10;99.90;;;;;;6210996;22;20045;-77
2023/04/24 12:43:33;;;;;;;4.30;2.65;;;17.20;99.90;;;;;;6265072;22;20019;-77
2023/04/24 12:46:00;;;;;;;3.78;2.08;;;17.30;99.90;;;;;;6238011;22;20048;-78
2023/04/24 12:48:28;;;;;;;4.22;2.35;;;17.40;99.90;;;;;;6236093;22;20553;-78
2023/04/24 12:51:00;;;;;;;4.72;1.98;;;17.40;99.90;;;;;;6239114;22;20028;-77
2023/04/24 12:53:29;;;;;;;5.70;2.63;;;17.40;99.90;;;;;;6211650;22;20055;-78
2023/04/24 12:55:56;;;;;;;4.75;2.42;;;17.50;99.90;;;;;;6236139;22;20419;-77